»·PEaware :: UAL2368 KSFO-KMFR

UAL2368 :: KSFO-KMFR

FLIGHT INFORMATION

Flight Status: Arrived
Operator:
United Airlines
More flights by this operator :: More flights under this callsign
Pilot: Juergen W. (20028)
Aircraft: AIRBUS A319
(A319)
More flights by this aircraft type
Origin: KSFO San Francisco Intl
United States
Destination: KMFR Rogue Valley Intl-Medford
United States
More flights between these airports :: More routes between these airports
Route: +TRUKN2 GRTFL OED
File this flight plan on PilotEdge
Remarks:
Altitude:
(Current/Filed)
360ft
Speed:
(Current/Filed)
408kts
Departed: 12-Aug-18 08:15 AM
Arrived: 12-Aug-18 09:10 AM
Distance/Time
Traveled:
286nm/0:54
Distance/Time
To Go:
Arrived

Flight Plot

Page will automatically refresh every two minutes.


Map Options




Map Legend


Flown Route
Filed Route
Departure Airport
Arrival Airport
Navaid (VOR, NDB)
Fix

Horizontal Profiles

Position Reports

Time Latitude Longitude Heading Altitude Ground
Speed
12-Aug-18 07:39 37.621117 -122.388404 208 27ft 0kts
12-Aug-18 07:40 37.621117 -122.388404 208 27ft 0kts
12-Aug-18 07:41 37.621117 -122.388404 208 27ft 0kts
12-Aug-18 07:42 37.621117 -122.388404 208 27ft 0kts
12-Aug-18 07:43 37.621117 -122.388404 208 27ft 0kts
12-Aug-18 07:44 37.621117 -122.388404 208 27ft 0kts
12-Aug-18 07:45 37.621117 -122.388404 208 27ft 0kts
12-Aug-18 07:46 37.621117 -122.388404 208 27ft 0kts
12-Aug-18 07:47 37.621117 -122.388404 208 27ft 0kts
12-Aug-18 07:48 37.621117 -122.388404 208 27ft 0kts
12-Aug-18 07:49 37.621117 -122.388404 208 27ft 0kts
12-Aug-18 07:50 37.621117 -122.388404 208 27ft 0kts
12-Aug-18 07:51 37.621117 -122.388404 208 27ft 0kts
12-Aug-18 07:52 37.621117 -122.388404 208 27ft 0kts
12-Aug-18 07:53 37.621117 -122.388404 208 27ft 0kts
12-Aug-18 07:54 37.621117 -122.388404 208 27ft 0kts
12-Aug-18 07:55 37.621117 -122.388404 208 27ft 0kts
12-Aug-18 07:56 37.621117 -122.388404 208 27ft 0kts
12-Aug-18 07:57 37.621117 -122.388404 208 27ft 0kts
12-Aug-18 07:58 37.621117 -122.388404 208 27ft 0kts
12-Aug-18 07:59 37.621117 -122.388404 208 27ft 0kts
12-Aug-18 08:00 37.621117 -122.388404 208 27ft 0kts
12-Aug-18 08:01 37.621117 -122.388404 208 27ft 0kts
12-Aug-18 08:02 37.621117 -122.388404 208 27ft 0kts
12-Aug-18 08:03 37.621477 -122.388161 208 27ft 2kts
12-Aug-18 08:04 37.622060 -122.387903 154 27ft 2kts
12-Aug-18 08:05 37.622218 -122.388124 117 27ft 0kts
12-Aug-18 08:06 37.622217 -122.388122 117 27ft 0kts
12-Aug-18 08:07 37.622217 -122.388120 117 27ft 0kts
12-Aug-18 08:08 37.622188 -122.388051 117 27ft 0kts
12-Aug-18 08:09 37.621945 -122.387475 117 27ft 7kts
12-Aug-18 08:10 37.620661 -122.384358 102 27ft 12kts
12-Aug-18 08:11 37.618892 -122.380213 127 27ft 13kts
12-Aug-18 08:12 37.615704 -122.380244 208 27ft 12kts
12-Aug-18 08:13 37.612584 -122.382320 207 27ft 10kts
12-Aug-18 08:14 37.609623 -122.383904 137 27ft 12kts
12-Aug-18 08:15 37.608978 -122.382390 116 27ft 5kts
12-Aug-18 08:16 37.623361 -122.372662 25 173ft 155kts
12-Aug-18 08:17 37.654129 -122.331894 53 2620ft 187kts
12-Aug-18 08:18 37.688737 -122.270062 53 4696ft 248kts
12-Aug-18 08:19 37.744347 -122.213670 357 7339ft 285kts
12-Aug-18 08:20 37.826287 -122.217767 357 10437ft 305kts
12-Aug-18 08:21 37.919314 -122.219959 358 12319ft 362kts
12-Aug-18 08:22 38.026298 -122.222762 357 14422ft 395kts
12-Aug-18 08:23 38.138820 -122.225783 357 16864ft 413kts
12-Aug-18 08:24 38.255842 -122.228914 357 19241ft 427kts
12-Aug-18 08:25 38.376300 -122.234926 351 21437ft 438kts
12-Aug-18 08:26 38.498924 -122.254489 351 23355ft 450kts
12-Aug-18 08:27 38.624716 -122.273917 350 25036ft 460kts
12-Aug-18 08:28 38.753098 -122.294077 350 26564ft 470kts
12-Aug-18 08:29 38.884175 -122.314756 350 27997ft 480kts
12-Aug-18 08:30 39.017842 -122.335850 350 29356ft 487kts
12-Aug-18 08:31 39.151597 -122.357036 349 31125ft 482kts
12-Aug-18 08:32 39.284550 -122.378217 349 32800ft 478kts
12-Aug-18 08:33 39.416273 -122.399270 349 34325ft 475kts
12-Aug-18 08:34 39.547362 -122.420264 348 35671ft 474kts
12-Aug-18 08:35 39.678076 -122.441342 348 36035ft 473kts
12-Aug-18 08:36 39.808805 -122.462461 348 36032ft 473kts
12-Aug-18 08:37 39.939506 -122.483670 348 36028ft 473kts
12-Aug-18 08:38 40.070105 -122.504952 348 36014ft 473kts
12-Aug-18 08:39 40.200788 -122.526324 348 36012ft 473kts
12-Aug-18 08:40 40.331905 -122.547847 348 36013ft 473kts
12-Aug-18 08:41 40.462512 -122.569364 348 36015ft 473kts
12-Aug-18 08:42 40.593138 -122.590971 348 36021ft 473kts
12-Aug-18 08:43 40.721562 -122.612270 348 34306ft 465kts
12-Aug-18 08:44 40.852008 -122.634024 348 31217ft 475kts
12-Aug-18 08:45 40.984164 -122.656213 349 28724ft 481kts
12-Aug-18 08:46 41.117788 -122.678591 349 26235ft 485kts
12-Aug-18 08:47 41.249298 -122.700809 350 23745ft 468kts
12-Aug-18 08:48 41.376115 -122.722275 350 21225ft 451kts
12-Aug-18 08:49 41.498270 -122.743060 350 18636ft 434kts
12-Aug-18 08:50 41.615912 -122.763110 350 16070ft 418kts
12-Aug-18 08:51 41.727531 -122.794523 340 13649ft 403kts
12-Aug-18 08:52 41.833451 -122.840380 339 11611ft 394kts
12-Aug-18 08:53 41.932120 -122.885506 339 10008ft 347kts
12-Aug-18 08:54 42.014470 -122.925397 339 10001ft 297kts
12-Aug-18 08:55 42.091870 -122.963396 339 10002ft 296kts
12-Aug-18 08:56 42.169479 -123.001510 339 10002ft 296kts
12-Aug-18 08:57 42.246869 -123.039491 339 10002ft 295kts
12-Aug-18 08:58 42.324138 -123.077409 339 10003ft 295kts
12-Aug-18 08:59 42.401281 -123.115268 339 10007ft 295kts
12-Aug-18 09:00 42.478408 -123.153136 339 10016ft 295kts
12-Aug-18 09:01 42.554857 -123.190802 339 8950ft 291kts
12-Aug-18 09:02 42.630400 -123.226807 355 7405ft 284kts
12-Aug-18 09:03 42.679608 -123.160750 73 7037ft 276kts
12-Aug-18 09:04 42.692445 -123.059081 107 7006ft 278kts
12-Aug-18 09:05 42.628148 -123.006202 159 6668ft 285kts
12-Aug-18 09:06 42.556284 -122.968633 158 4936ft 260kts
12-Aug-18 09:07 42.493384 -122.935500 157 3589ft 224kts
12-Aug-18 09:08 42.444137 -122.909606 158 2659ft 150kts
12-Aug-18 09:09 42.409669 -122.891299 157 1865ft 128kts
12-Aug-18 09:10 42.377097 -122.874384 159 1349ft 85kts
12-Aug-18 09:11 42.369098 -122.870228 159 1349ft 7kts
12-Aug-18 09:12 42.368718 -122.871020 332 1349ft 5kts
12-Aug-18 09:13 42.369790 -122.872238 291 1349ft 9kts
12-Aug-18 09:14 42.371349 -122.875010 345 1349ft 7kts
12-Aug-18 09:15 42.371233 -122.876180 202 1349ft 3kts
12-Aug-18 09:16 42.371164 -122.876218 202 1349ft 0kts
12-Aug-18 09:17 42.371164 -122.876218 202 1349ft 0kts
12-Aug-18 09:18 42.371164 -122.876218 202 1349ft 0kts
12-Aug-18 09:19 42.371164 -122.876218 202 1349ft 0kts
12-Aug-18 09:20 42.371164 -122.876218 202 1349ft 0kts
12-Aug-18 09:21 42.371164 -122.876218 202 1349ft 0kts
12-Aug-18 09:22 42.371164 -122.876218 202 1349ft 0kts

Navigation Log

Ident Type
Flight plan parsing failed, navigation log unavailable